createdAt,value
2023-03-11T00:00:26.243Z,96703.09
2023-03-11T00:01:27.837Z,96711.13
2023-03-11T00:02:29.418Z,96707.06
2023-03-11T00:03:30.991Z,96707.53
2023-03-11T00:04:33.672Z,96708.97
2023-03-11T00:05:38.100Z,96714.22
2023-03-11T00:06:39.746Z,96712.97
2023-03-11T00:07:41.315Z,96716.22
2023-03-11T00:08:43.028Z,96717.28
2023-03-11T00:09:44.633Z,96719.63
2023-03-11T00:10:47.838Z,96715.84
2023-03-11T00:11:49.467Z,96715.38
2023-03-11T00:12:51.724Z,96725.69
2023-03-11T00:13:53.266Z,96720.44
2023-03-11T00:14:54.878Z,96720.25
2023-03-11T00:15:57.218Z,96723.31
2023-03-11T00:16:58.836Z,96726.31
2023-03-11T00:18:00.911Z,96724.16
2023-03-11T00:19:02.483Z,96727.31
2023-03-11T00:20:05.887Z,96722.06
2023-03-11T00:21:15.215Z,96734.34
2023-03-11T00:22:16.769Z,96727.50
2023-03-11T00:23:18.349Z,96731.56
2023-03-11T00:24:19.899Z,96727.03
2023-03-11T00:25:23.391Z,96723.88
2023-03-11T00:26:25.035Z,96728.13
2023-03-11T00:27:26.618Z,96726.78
2023-03-11T00:28:28.235Z,96724.78
2023-03-11T00:29:29.818Z,96728.41
2023-03-11T00:30:31.592Z,96727.22
2023-03-11T00:31:34.112Z,96731.81
2023-03-11T00:32:36.241Z,96733.63
2023-03-11T00:33:38.889Z,96724.94
2023-03-11T00:34:40.445Z,96727.41
2023-03-11T00:35:42.956Z,96718.38
2023-03-11T00:36:44.588Z,96725.22
2023-03-11T00:37:48.083Z,96719.34
2023-03-11T00:38:50.562Z,96717.72
2023-03-11T00:39:52.167Z,96723.59
2023-03-11T00:40:54.050Z,96720.53
2023-03-11T00:41:55.665Z,96719.91
2023-03-11T00:42:58.642Z,96712.59
2023-03-11T00:44:00.618Z,96717.00
2023-03-11T00:45:02.215Z,96712.38
2023-03-11T00:46:03.955Z,96716.00
2023-03-11T00:47:05.568Z,96711.50
2023-03-11T00:48:08.010Z,96721.38
2023-03-11T00:49:09.616Z,96720.38
2023-03-11T00:50:18.947Z,96729.56
2023-03-11T00:51:20.571Z,96720.47
2023-03-11T00:52:22.158Z,96722.63
2023-03-11T00:53:23.743Z,96724.00
2023-03-11T00:54:25.465Z,96723.63
2023-03-11T00:55:30.902Z,96729.50
2023-03-11T00:56:33.711Z,96721.00
2023-03-11T00:57:35.337Z,96729.31
2023-03-11T00:58:37.872Z,96732.56
2023-03-11T00:59:39.468Z,96725.53
2023-03-11T01:00:41.730Z,96725.16
2023-03-11T01:01:43.337Z,96723.53
2023-03-11T01:02:45.304Z,96727.31
2023-03-11T01:03:46.906Z,96728.16
2023-03-11T01:04:48.672Z,96726.69
2023-03-11T01:05:50.309Z,96725.44
2023-03-11T01:06:52.004Z,96714.41
2023-03-11T01:07:53.603Z,96726.88
2023-03-11T01:08:55.224Z,96715.56
2023-03-11T01:09:56.776Z,96716.19
2023-03-11T01:10:59.565Z,96714.09
2023-03-11T01:12:01.197Z,96719.88
2023-03-11T01:13:04.044Z,96716.75
2023-03-11T01:14:05.734Z,96709.59
2023-03-11T01:15:09.247Z,96716.81
2023-03-11T01:16:10.951Z,96717.44
2023-03-11T01:17:12.591Z,96710.94
2023-03-11T01:18:14.270Z,96715.91
2023-03-11T01:19:15.976Z,96709.41
2023-03-11T01:20:17.990Z,96715.16
2023-03-11T01:21:19.542Z,96714.53
2023-03-11T01:22:21.336Z,96713.72
2023-03-11T01:23:23.137Z,96709.56
2023-03-11T01:24:24.724Z,96709.75
2023-03-11T01:25:26.446Z,96715.16
2023-03-11T01:26:28.050Z,96713.72
2023-03-11T01:27:30.791Z,96713.63
2023-03-11T01:28:32.372Z,96712.00
2023-03-11T01:29:34.404Z,96717.22
2023-03-11T01:30:40.192Z,96710.66
2023-03-11T01:31:41.795Z,96708.84
2023-03-11T01:32:43.604Z,96709.31
2023-03-11T01:33:45.264Z,96714.28
2023-03-11T01:34:46.930Z,96711.28
2023-03-11T01:35:48.489Z,96712.81
2023-03-11T01:36:50.117Z,96720.47
2023-03-11T01:37:51.763Z,96718.69
2023-03-11T01:38:53.425Z,96723.09
2023-03-11T01:39:55.031Z,96712.50
2023-03-11T01:40:56.607Z,96713.34
2023-03-11T01:41:58.362Z,96722.91
2023-03-11T01:43:00.661Z,96717.69
2023-03-11T01:44:02.815Z,96711.00
2023-03-11T01:45:45.709Z,96720.31
2023-03-11T01:46:53.554Z,96713.63
2023-03-11T01:48:02.186Z,96719.50
2023-03-11T01:49:05.751Z,96716.22
2023-03-11T01:50:12.796Z,96713.63
2023-03-11T01:51:17.461Z,96708.03
2023-03-11T01:52:19.559Z,96708.03
2023-03-11T01:53:25.269Z,96711.81
2023-03-11T01:54:36.198Z,96715.59
2023-03-11T01:55:38.525Z,96711.72
2023-03-11T01:56:41.954Z,96718.41
2023-03-11T01:57:46.524Z,96710.25
2023-03-11T01:58:52.968Z,96723.44
2023-03-11T01:59:58.152Z,96715.13
2023-03-11T02:01:01.480Z,96714.28
2023-03-11T02:02:16.329Z,96716.91
2023-03-11T02:03:24.125Z,96720.06
2023-03-11T02:04:28.301Z,96716.81
2023-03-11T02:05:29.956Z,96712.91
2023-03-11T02:06:32.577Z,96711.09
2023-03-11T02:07:34.653Z,96714.91
2023-03-11T02:08:38.274Z,96711.63
2023-03-11T02:09:42.301Z,96708.72
2023-03-11T02:10:44.230Z,96712.97
2023-03-11T02:11:45.833Z,96705.84
2023-03-11T02:12:49.341Z,96711.50
2023-03-11T02:14:00.496Z,96711.25
2023-03-11T02:15:04.503Z,96711.41
2023-03-11T02:16:06.519Z,96701.13
2023-03-11T02:17:08.888Z,96713.38
2023-03-11T02:18:13.874Z,96716.34
2023-03-11T02:19:30.361Z,96716.88
2023-03-11T02:21:12.943Z,96722.56
2023-03-11T02:22:15.306Z,96724.88
2023-03-11T02:23:21.557Z,96721.34
2023-03-11T02:24:30.839Z,96721.69
2023-03-11T02:25:55.993Z,96720.25
2023-03-11T02:27:00.355Z,96720.13
2023-03-11T02:28:07.246Z,96716.34
2023-03-11T02:29:11.800Z,96720.63
2023-03-11T02:30:15.258Z,96730.94
2023-03-11T02:31:19.315Z,96725.09
2023-03-11T02:32:21.463Z,96722.84
2023-03-11T02:33:26.648Z,96721.38
2023-03-11T02:34:31.498Z,96719.75
2023-03-11T02:35:34.324Z,96723.03
2023-03-11T02:36:39.237Z,96724.19
2023-03-11T02:37:51.769Z,96722.38
2023-03-11T02:38:54.250Z,96721.91
2023-03-11T02:40:22.086Z,96719.63
2023-03-11T02:41:24.550Z,96722.13
2023-03-11T02:42:31.512Z,96721.13
2023-03-11T02:43:43.423Z,96716.91
2023-03-11T02:44:52.344Z,96714.44
2023-03-11T02:45:54.381Z,96716.59
2023-03-11T02:46:56.465Z,96716.91
2023-03-11T02:47:59.719Z,96715.13
2023-03-11T02:49:01.951Z,96713.81
2023-03-11T02:50:04.529Z,96715.47
2023-03-11T02:51:07.042Z,96712.19
2023-03-11T02:52:08.933Z,96711.25
2023-03-11T02:53:10.559Z,96706.38
2023-03-11T02:54:12.185Z,96698.88
2023-03-11T02:55:14.019Z,96705.72
2023-03-11T02:56:15.609Z,96709.50
2023-03-11T02:57:17.693Z,96711.47
2023-03-11T02:58:19.394Z,96702.31
2023-03-11T02:59:21.017Z,96707.06
2023-03-11T03:00:22.913Z,96706.28
2023-03-11T03:01:31.606Z,96712.00
2023-03-11T03:02:34.719Z,96708.94
2023-03-11T03:03:36.552Z,96707.78
2023-03-11T03:04:38.160Z,96701.75
2023-03-11T03:05:39.785Z,96709.91
2023-03-11T03:06:41.426Z,96708.25
2023-03-11T03:07:43.065Z,96706.16
2023-03-11T03:08:44.788Z,96707.13
2023-03-11T03:09:46.527Z,96705.00
2023-03-11T03:10:48.217Z,96704.66
2023-03-11T03:11:49.910Z,96713.47
2023-03-11T03:12:51.809Z,96714.31
2023-03-11T03:13:53.425Z,96713.00
2023-03-11T03:14:55.061Z,96707.28
2023-03-11T03:15:57.224Z,96712.66
2023-03-11T03:16:59.122Z,96712.19
2023-03-11T03:18:00.803Z,96715.13
2023-03-11T03:19:02.464Z,96707.44
2023-03-11T03:20:04.572Z,96708.56
2023-03-11T03:21:06.352Z,96712.19
2023-03-11T03:22:08.471Z,96712.34
2023-03-11T03:23:11.256Z,96708.25
2023-03-11T03:24:12.923Z,96710.06
2023-03-11T03:25:14.630Z,96711.84
2023-03-11T03:26:16.333Z,96709.09
2023-03-11T03:27:20.887Z,96710.88
2023-03-11T03:28:22.487Z,96721.00
2023-03-11T03:29:24.723Z,96711.84
2023-03-11T03:30:26.706Z,96715.78
2023-03-11T03:31:28.725Z,96715.78
2023-03-11T03:32:32.264Z,96724.41
2023-03-11T03:33:35.363Z,96718.41
2023-03-11T03:34:37.592Z,96713.50
2023-03-11T03:35:45.014Z,96709.59
2023-03-11T03:36:54.452Z,96714.63
2023-03-11T03:37:56.074Z,96719.22
2023-03-11T03:38:58.510Z,96714.78
2023-03-11T03:40:05.888Z,96719.19
2023-03-11T03:41:07.973Z,96729.63
2023-03-11T03:42:11.769Z,96720.03
2023-03-11T03:43:15.592Z,96717.59
2023-03-11T03:44:19.491Z,96720.84
2023-03-11T03:45:22.161Z,96715.81
2023-03-11T03:46:26.824Z,96717.28
2023-03-11T03:47:33.113Z,96720.19
2023-03-11T03:48:34.721Z,96726.06
2023-03-11T03:49:39.305Z,96716.13
2023-03-11T03:50:41.376Z,96717.25
2023-03-11T03:51:44.910Z,96724.44
2023-03-11T03:52:54.261Z,96712.53
2023-03-11T03:53:57.181Z,96710.41
2023-03-11T03:55:00.653Z,96707.31
2023-03-11T03:56:07.388Z,96722.63
2023-03-11T03:57:10.226Z,96720.66
2023-03-11T03:58:18.947Z,96721.00
2023-03-11T03:59:20.525Z,96716.75
2023-03-11T04:00:26.810Z,96722.13
2023-03-11T04:01:33.718Z,96727.50
2023-03-11T04:02:35.504Z,96725.22
2023-03-11T04:03:37.651Z,96720.66
2023-03-11T04:04:43.272Z,96712.47
2023-03-11T04:05:45.493Z,96724.22
2023-03-11T04:06:48.259Z,96719.81
2023-03-11T04:07:50.008Z,96712.47
2023-03-11T04:08:53.659Z,96721.41
2023-03-11T04:09:58.564Z,96718.75
2023-03-11T04:11:00.244Z,96722.00
2023-03-11T04:12:03.924Z,96729.31
2023-03-11T04:13:08.257Z,96733.09
2023-03-11T04:14:10.149Z,96739.41
2023-03-11T04:15:17.862Z,96736.28
2023-03-11T04:16:22.442Z,96735.50
2023-03-11T04:17:25.273Z,96729.13
2023-03-11T04:18:28.468Z,96737.94
2023-03-11T04:19:30.134Z,96742.81
2023-03-11T04:20:32.222Z,96740.84
2023-03-11T04:21:34.417Z,96737.91
2023-03-11T04:22:36.727Z,96731.03
2023-03-11T04:23:39.805Z,96736.75
2023-03-11T04:24:42.344Z,96737.03
2023-03-11T04:25:44.049Z,96731.22
2023-03-11T04:26:45.703Z,96744.06
2023-03-11T04:27:50.649Z,96738.72
2023-03-11T04:28:52.410Z,96734.94
2023-03-11T04:29:54.110Z,96745.03
2023-03-11T04:30:56.633Z,96746.00
2023-03-11T04:31:58.413Z,96742.22
2023-03-11T04:33:00.021Z,96746.47
2023-03-11T04:34:01.755Z,96743.69
2023-03-11T04:35:04.307Z,96745.94
2023-03-11T04:36:07.441Z,96743.03
2023-03-11T04:37:10.464Z,96745.81
2023-03-11T04:38:12.298Z,96739.13
2023-03-11T04:39:15.213Z,96744.97
2023-03-11T04:40:18.755Z,96740.75
2023-03-11T04:41:20.372Z,96743.94
2023-03-11T04:42:21.997Z,96750.97
2023-03-11T04:43:24.008Z,96748.81
2023-03-11T04:44:25.910Z,96740.81
2023-03-11T04:45:27.556Z,96748.47
2023-03-11T04:46:31.816Z,96750.25
2023-03-11T04:47:34.806Z,96747.63
2023-03-11T04:48:38.530Z,96754.78
2023-03-11T04:49:41.476Z,96755.31
2023-03-11T04:50:43.080Z,96758.88
2023-03-11T04:51:44.871Z,96757.06
2023-03-11T04:52:48.762Z,96754.34
2023-03-11T04:53:50.400Z,96757.91
2023-03-11T04:54:52.346Z,96758.41
2023-03-11T04:55:53.966Z,96764.28
2023-03-11T04:56:55.589Z,96761.69
2023-03-11T04:57:58.191Z,96765.25
2023-03-11T04:59:00.219Z,96767.81
2023-03-11T05:00:05.060Z,96766.97
2023-03-11T05:01:06.837Z,96781.63
2023-03-11T05:02:10.591Z,96777.69
2023-03-11T05:03:15.067Z,96774.28
2023-03-11T05:04:16.967Z,96776.38
2023-03-11T05:05:18.843Z,96781.91
2023-03-11T05:06:20.456Z,96783.31
2023-03-11T05:07:22.552Z,96775.00
2023-03-11T05:08:24.928Z,96777.88
2023-03-11T05:09:26.622Z,96777.22
2023-03-11T05:10:30.733Z,96785.69
2023-03-11T05:11:34.827Z,96783.56
2023-03-11T05:12:36.847Z,96778.69
2023-03-11T05:13:38.546Z,96785.22
2023-03-11T05:14:40.136Z,96786.41
2023-03-11T05:15:42.042Z,96785.59
2023-03-11T05:16:43.779Z,96779.06
2023-03-11T05:17:45.823Z,96788.00
2023-03-11T05:18:47.463Z,96792.53
2023-03-11T05:19:51.923Z,96789.94
2023-03-11T05:20:58.535Z,96788.34
2023-03-11T05:22:04.703Z,96793.25
2023-03-11T05:23:06.511Z,96793.94
2023-03-11T05:24:09.966Z,96789.00
2023-03-11T05:25:12.756Z,96792.22
2023-03-11T05:26:14.333Z,96797.56
2023-03-11T05:27:17.951Z,96805.69
2023-03-11T05:28:22.205Z,96811.19
2023-03-11T05:29:26.897Z,96802.72
2023-03-11T05:30:29.265Z,96809.56
2023-03-11T05:31:32.592Z,96799.53
2023-03-11T05:32:35.895Z,96805.81
2023-03-11T05:33:38.268Z,96809.63
2023-03-11T05:34:42.382Z,96810.75
2023-03-11T05:35:44.434Z,96812.97
2023-03-11T05:36:46.128Z,96817.59
2023-03-11T05:37:48.241Z,96816.44
2023-03-11T05:38:49.893Z,96811.75
2023-03-11T05:39:52.535Z,96816.66
2023-03-11T05:40:54.963Z,96827.25
2023-03-11T05:41:56.579Z,96829.97
2023-03-11T05:42:58.706Z,96831.34
2023-03-11T05:44:02.441Z,96828.41
2023-03-11T05:45:04.574Z,96827.75
2023-03-11T05:46:07.620Z,96831.34
2023-03-11T05:47:09.394Z,96836.22
2023-03-11T05:48:11.392Z,96839.50
2023-03-11T05:49:13.001Z,96843.06
2023-03-11T05:50:14.668Z,96839.81
2023-03-11T05:51:18.552Z,96846.94
2023-03-11T05:52:21.455Z,96838.44
2023-03-11T05:53:23.933Z,96841.56
2023-03-11T05:54:26.089Z,96859.97
2023-03-11T05:55:27.990Z,96858.28
2023-03-11T05:56:29.655Z,96864.69
2023-03-11T05:57:31.395Z,96856.53
2023-03-11T05:58:33.334Z,96859.56
2023-03-11T05:59:35.158Z,96863.13
2023-03-11T06:00:39.243Z,96866.56
2023-03-11T06:01:41.436Z,96862.84
2023-03-11T06:02:43.077Z,96864.63
2023-03-11T06:03:48.074Z,96865.75
2023-03-11T06:04:49.998Z,96868.69
2023-03-11T06:05:52.173Z,96874.22
2023-03-11T06:06:53.889Z,96883.38
2023-03-11T06:07:58.130Z,96880.78
2023-03-11T06:08:59.766Z,96886.25
2023-03-11T06:10:04.771Z,96885.66
2023-03-11T06:11:10.793Z,96891.41
2023-03-11T06:12:13.605Z,96900.88
2023-03-11T06:13:38.743Z,96894.25
2023-03-11T06:14:40.326Z,96899.34
2023-03-11T06:15:44.424Z,96907.94
2023-03-11T06:16:46.152Z,96906.16
2023-03-11T06:17:47.867Z,96908.56
2023-03-11T06:18:49.608Z,96914.44
2023-03-11T06:19:51.232Z,96914.56
2023-03-11T06:20:54.185Z,96916.00
2023-03-11T06:21:55.846Z,96920.53
2023-03-11T06:22:57.502Z,96918.97
2023-03-11T06:24:00.309Z,96923.41
2023-03-11T06:25:03.528Z,96925.06
2023-03-11T06:26:06.946Z,96926.16
2023-03-11T06:27:13.414Z,96930.03
2023-03-11T06:28:16.202Z,96930.25
2023-03-11T06:29:19.467Z,96932.81
2023-03-11T06:30:23.963Z,96931.84
2023-03-11T06:31:35.533Z,96936.00
2023-03-11T06:32:51.478Z,96941.34
2023-03-11T06:33:54.695Z,96949.84
2023-03-11T06:34:56.436Z,96944.47
2023-03-11T06:35:59.465Z,96954.22
2023-03-11T06:37:01.105Z,96948.78
2023-03-11T06:38:02.735Z,96956.72
2023-03-11T06:39:04.578Z,96958.13
2023-03-11T06:40:09.140Z,96958.81
2023-03-11T06:41:10.865Z,96961.63
2023-03-11T06:42:12.732Z,96965.09
2023-03-11T06:43:15.538Z,96956.38
2023-03-11T06:45:32.651Z,96949.78
2023-03-11T06:46:34.382Z,96963.88
2023-03-11T06:47:36.016Z,96967.22
2023-03-11T06:48:37.953Z,96965.41
2023-03-11T06:49:39.548Z,96968.78
2023-03-11T06:50:41.158Z,96977.41
2023-03-11T06:51:42.758Z,96977.06
2023-03-11T06:52:45.563Z,96965.34
2023-03-11T06:53:53.931Z,96977.91
2023-03-11T06:54:56.936Z,96979.13
2023-03-11T06:56:10.456Z,96987.03
2023-03-11T06:57:18.387Z,96983.34
2023-03-11T06:58:22.044Z,96983.06
2023-03-11T06:59:23.622Z,96988.78
2023-03-11T07:00:25.303Z,96991.09
2023-03-11T07:01:32.078Z,96998.88
2023-03-11T07:02:35.979Z,97001.91
2023-03-11T07:03:38.265Z,97003.00
2023-03-11T07:04:39.927Z,97006.81
2023-03-11T07:05:42.119Z,97010.88
2023-03-11T07:06:45.435Z,97007.41
2023-03-11T07:07:54.802Z,97019.31
2023-03-11T07:08:57.761Z,97022.72
2023-03-11T07:09:59.388Z,97019.69
2023-03-11T07:11:07.346Z,97005.63
2023-03-11T07:12:09.674Z,97020.13
2023-03-11T07:13:12.502Z,97015.34
2023-03-11T07:14:15.084Z,97027.06
2023-03-11T07:15:20.986Z,97023.59
2023-03-11T07:16:25.392Z,97018.38
2023-03-11T07:17:30.153Z,97028.06
2023-03-11T07:18:32.671Z,97014.94
2023-03-11T07:19:34.294Z,97031.31
2023-03-11T07:20:35.873Z,97029.56
2023-03-11T07:21:38.670Z,97032.00
2023-03-11T07:22:40.228Z,97040.19
2023-03-11T07:23:41.916Z,97034.56
2023-03-11T07:24:49.683Z,97043.16
2023-03-11T07:25:51.261Z,97053.94
2023-03-11T07:26:52.829Z,97052.38
2023-03-11T07:27:54.469Z,97041.41
2023-03-11T07:28:57.185Z,97058.47
2023-03-11T07:30:00.434Z,97056.56
2023-03-11T07:31:08.041Z,97053.75
2023-03-11T07:32:10.250Z,97061.94
2023-03-11T07:33:12.448Z,97061.41
2023-03-11T07:34:14.207Z,97069.94
2023-03-11T07:35:16.382Z,97054.28
2023-03-11T07:36:23.096Z,97070.69
2023-03-11T07:37:24.676Z,97068.09
2023-03-11T07:38:26.246Z,97076.19
2023-03-11T07:39:28.034Z,97071.66
2023-03-11T07:40:29.724Z,97073.47
2023-03-11T07:41:33.882Z,97082.75
2023-03-11T07:42:35.506Z,97075.41
2023-03-11T07:43:37.486Z,97081.19
2023-03-11T07:44:39.070Z,97078.47
2023-03-11T07:45:40.796Z,97079.56
2023-03-11T07:46:44.334Z,97089.38
2023-03-11T07:47:45.989Z,97086.34
2023-03-11T07:48:47.617Z,97080.47
2023-03-11T07:49:49.256Z,97086.22
2023-03-11T07:50:59.543Z,97093.47
2023-03-11T07:52:01.263Z,97090.09
2023-03-11T07:53:02.858Z,97092.28
2023-03-11T07:54:05.245Z,97092.56
2023-03-11T07:55:07.378Z,97100.66
2023-03-11T07:56:11.751Z,97096.00
2023-03-11T07:57:13.380Z,97101.56
2023-03-11T07:58:14.934Z,97080.94
2023-03-11T07:59:16.524Z,97102.41
2023-03-11T08:00:18.726Z,97093.94
2023-03-11T08:01:23.329Z,97105.97
2023-03-11T08:02:24.964Z,97093.69
2023-03-11T08:03:26.565Z,97093.78
2023-03-11T08:04:28.155Z,97093.09
2023-03-11T08:05:34.085Z,97114.75
2023-03-11T08:06:37.034Z,97114.88
2023-03-11T08:07:38.920Z,97113.78
2023-03-11T08:08:40.792Z,97105.38
2023-03-11T08:09:42.354Z,97118.44
2023-03-11T08:10:43.943Z,97109.28
2023-03-11T08:11:45.530Z,97114.75
2023-03-11T08:12:47.170Z,97128.00
2023-03-11T08:13:49.455Z,97133.34
2023-03-11T08:14:51.027Z,97134.84
2023-03-11T08:15:52.680Z,97130.75
2023-03-11T08:16:54.358Z,97137.88
2023-03-11T08:17:56.037Z,97131.06
2023-03-11T08:18:57.623Z,97129.53
2023-03-11T08:19:59.190Z,97143.47
2023-03-11T08:21:06.010Z,97148.00
2023-03-11T08:22:07.592Z,97143.09
2023-03-11T08:23:09.146Z,97148.00
2023-03-11T08:24:13.146Z,97159.91
2023-03-11T08:25:14.906Z,97167.28
2023-03-11T08:26:19.769Z,97168.00
2023-03-11T08:27:21.357Z,97162.66
2023-03-11T08:28:22.933Z,97164.97
2023-03-11T08:29:25.180Z,97169.63
2023-03-11T08:30:26.733Z,97179.84
2023-03-11T08:31:30.841Z,97173.97
2023-03-11T08:32:32.956Z,97171.78
2023-03-11T08:33:34.536Z,97175.19
2023-03-11T08:34:36.208Z,97179.44
2023-03-11T08:35:38.069Z,97185.22
2023-03-11T08:36:39.911Z,97176.97
2023-03-11T08:37:41.519Z,97179.72
2023-03-11T08:38:43.123Z,97184.94
2023-03-11T08:39:44.711Z,97182.06
2023-03-11T08:40:46.367Z,97186.13
2023-03-11T08:41:47.917Z,97192.41
2023-03-11T08:42:49.623Z,97192.56
2023-03-11T08:43:51.301Z,97185.44
2023-03-11T08:44:52.916Z,97199.66
2023-03-11T08:45:54.536Z,97195.31
2023-03-11T08:46:56.230Z,97197.47
2023-03-11T08:47:57.919Z,97201.44
2023-03-11T08:49:01.389Z,97198.19
2023-03-11T08:50:11.671Z,97204.75
2023-03-11T08:51:14.102Z,97204.59
2023-03-11T08:52:15.736Z,97197.19
2023-03-11T08:53:17.560Z,97212.22
2023-03-11T08:54:19.114Z,97198.41
2023-03-11T08:55:20.698Z,97211.53
2023-03-11T08:56:22.302Z,97221.22
2023-03-11T08:57:24.001Z,97219.56
2023-03-11T08:58:25.982Z,97208.56
2023-03-11T08:59:27.692Z,97224.97
2023-03-11T09:00:29.357Z,97232.22
2023-03-11T09:01:31.032Z,97228.25
2023-03-11T09:02:32.944Z,97228.53
2023-03-11T09:03:35.356Z,97235.63
2023-03-11T09:04:36.976Z,97236.28
2023-03-11T09:05:39.923Z,97221.66
2023-03-11T09:06:43.330Z,97245.25
2023-03-11T09:07:44.992Z,97243.50
2023-03-11T09:08:47.914Z,97247.84
2023-03-11T09:09:49.482Z,97255.38
2023-03-11T09:10:51.072Z,97252.06
2023-03-11T09:11:52.666Z,97248.00
2023-03-11T09:12:54.219Z,97262.16
2023-03-11T09:13:55.764Z,97246.03
2023-03-11T09:14:57.356Z,97258.25
2023-03-11T09:15:59.253Z,97257.28
2023-03-11T09:17:01.006Z,97264.66
2023-03-11T09:18:02.560Z,97265.97
2023-03-11T09:19:04.209Z,97266.47
2023-03-11T09:20:06.468Z,97268.94
2023-03-11T09:21:08.448Z,97277.03
2023-03-11T09:22:09.988Z,97286.84
2023-03-11T09:23:14.056Z,97278.94
2023-03-11T09:24:15.642Z,97273.25
2023-03-11T09:25:17.239Z,97286.78
2023-03-11T09:26:18.876Z,97285.81
2023-03-11T09:27:20.446Z,97287.34
2023-03-11T09:28:22.024Z,97277.94
2023-03-11T09:29:23.646Z,97295.19
2023-03-11T09:30:25.313Z,97297.78
2023-03-11T09:31:27.043Z,97299.69
2023-03-11T09:32:28.761Z,97290.25
2023-03-11T09:33:30.401Z,97289.94
2023-03-11T09:34:32.062Z,97301.19
2023-03-11T09:35:33.870Z,97302.28
2023-03-11T09:36:35.554Z,97311.19
2023-03-11T09:37:37.092Z,97300.44
2023-03-11T09:38:38.668Z,97311.19
2023-03-11T09:39:40.271Z,97321.72
2023-03-11T09:40:59.655Z,97314.31
2023-03-11T09:42:42.973Z,97323.78
2023-03-11T09:44:00.145Z,97320.63
2023-03-11T09:45:11.208Z,97327.59
2023-03-11T09:46:34.288Z,97325.75
2023-03-11T09:47:45.633Z,97344.00
2023-03-11T09:49:13.139Z,97343.84
2023-03-11T09:50:24.903Z,97337.59
2023-03-11T09:51:28.674Z,97341.38
2023-03-11T09:52:44.143Z,97352.94
2023-03-11T09:53:49.528Z,97353.69
2023-03-11T09:54:53.574Z,97353.03
2023-03-11T09:56:05.045Z,97350.34
2023-03-11T09:57:12.829Z,97359.25
2023-03-11T09:58:44.975Z,97351.75
2023-03-11T09:59:47.638Z,97361.41
2023-03-11T10:00:50.383Z,97362.38
2023-03-11T10:01:52.258Z,97362.81
2023-03-11T10:02:54.708Z,97360.22
2023-03-11T10:04:02.094Z,97382.97
2023-03-11T10:05:12.520Z,97370.50
2023-03-11T10:06:26.368Z,97376.38
2023-03-11T10:07:39.536Z,97386.75
2023-03-11T10:08:49.074Z,97374.72
2023-03-11T10:09:55.745Z,97381.56
2023-03-11T10:11:13.776Z,97390.75
2023-03-11T10:12:56.115Z,97390.84
2023-03-11T10:14:05.880Z,97385.44
2023-03-11T10:15:24.284Z,97401.72
2023-03-11T10:16:51.569Z,97392.06
2023-03-11T10:17:59.319Z,97402.66
2023-03-11T10:19:21.728Z,97407.38
2023-03-11T10:20:35.981Z,97417.03
2023-03-11T10:21:44.126Z,97413.69
2023-03-11T10:22:51.121Z,97410.56
2023-03-11T10:24:13.827Z,97407.00
2023-03-11T10:25:32.570Z,97423.72
2023-03-11T10:26:37.512Z,97429.47
2023-03-11T10:28:01.629Z,97419.63
2023-03-11T10:29:29.830Z,97428.34
2023-03-11T10:30:38.700Z,97427.97
2023-03-11T10:32:15.238Z,97441.34
2023-03-11T10:33:25.550Z,97440.16
2023-03-11T10:34:34.222Z,97444.16
2023-03-11T10:35:41.803Z,97453.34
2023-03-11T10:36:51.475Z,97443.91
2023-03-11T10:38:28.297Z,97448.28
2023-03-11T10:39:32.125Z,97453.31
2023-03-11T10:40:36.755Z,97451.69
2023-03-11T10:41:47.426Z,97465.34
2023-03-11T10:42:50.855Z,97448.69
2023-03-11T10:44:03.367Z,97459.69
2023-03-11T10:45:12.422Z,97471.34
2023-03-11T10:46:24.600Z,97470.38
2023-03-11T10:47:26.187Z,97450.72
2023-03-11T10:48:27.765Z,97475.72
2023-03-11T10:49:29.889Z,97473.16
2023-03-11T10:50:36.548Z,97482.41
2023-03-11T10:51:38.726Z,97477.22
2023-03-11T10:53:06.503Z,97498.56
2023-03-11T10:54:08.151Z,97496.22
2023-03-11T10:55:16.555Z,97504.13
2023-03-11T10:56:36.109Z,97469.72
2023-03-11T10:57:38.013Z,97507.22
2023-03-11T10:58:49.153Z,97500.47
2023-03-11T10:59:56.188Z,97511.44
2023-03-11T11:01:18.517Z,97531.34
2023-03-11T11:02:28.062Z,97516.28
2023-03-11T11:03:29.953Z,97530.78
2023-03-11T11:04:41.101Z,97529.94
2023-03-11T11:05:42.682Z,97528.16
2023-03-11T11:06:44.339Z,97535.00
2023-03-11T11:07:48.612Z,97546.31
2023-03-11T11:09:04.351Z,97548.31
2023-03-11T11:10:23.820Z,97547.97
2023-03-11T11:11:25.354Z,97539.59
2023-03-11T11:12:26.903Z,97546.91
2023-03-11T11:13:31.025Z,97552.69
2023-03-11T11:14:48.692Z,97553.03
2023-03-11T11:16:00.912Z,97563.19
2023-03-11T11:17:02.554Z,97573.56
2023-03-11T11:18:18.137Z,97565.31
2023-03-11T11:19:19.929Z,97564.94
2023-03-11T11:20:23.023Z,97568.13
2023-03-11T11:21:34.190Z,97589.47
2023-03-11T11:22:35.808Z,97576.72
2023-03-11T11:23:44.992Z,97581.91
2023-03-11T11:24:48.736Z,97573.44
2023-03-11T11:25:58.808Z,97576.38
2023-03-11T11:27:04.468Z,97590.63
2023-03-11T11:28:18.264Z,97594.41
2023-03-11T11:29:20.469Z,97599.84
2023-03-11T11:30:22.486Z,97598.53
2023-03-11T11:31:25.846Z,97604.31
2023-03-11T11:32:27.658Z,97611.84
2023-03-11T11:33:38.646Z,97611.00
2023-03-11T11:34:41.058Z,97595.22
2023-03-11T11:35:51.423Z,97624.56
2023-03-11T11:36:53.213Z,97624.94
2023-03-11T11:38:01.475Z,97603.25
2023-03-11T11:39:15.803Z,97613.63
2023-03-11T11:40:30.430Z,97630.13
2023-03-11T11:41:35.978Z,97629.31
2023-03-11T11:42:41.071Z,97634.94
2023-03-11T11:43:59.985Z,97635.44
2023-03-11T11:45:13.339Z,97643.41
2023-03-11T11:46:30.396Z,97636.72
2023-03-11T11:47:39.409Z,97635.28
2023-03-11T11:48:47.400Z,97652.41
2023-03-11T11:49:57.806Z,97636.25
2023-03-11T11:51:03.084Z,97652.75
2023-03-11T11:52:12.329Z,97648.03
2023-03-11T11:53:58.861Z,97660.19
2023-03-11T11:55:00.429Z,97663.13
2023-03-11T11:56:02.692Z,97662.19
2023-03-11T11:57:15.805Z,97657.25
2023-03-11T11:58:17.545Z,97655.34
2023-03-11T11:59:22.239Z,97683.75
2023-03-11T12:00:32.481Z,97660.41
2023-03-11T12:01:50.205Z,97681.16
2023-03-11T12:03:19.349Z,97700.00
2023-03-11T12:05:05.341Z,97696.09
2023-03-11T12:06:43.400Z,97689.34
2023-03-11T12:07:58.237Z,97698.53
2023-03-11T12:09:21.481Z,97691.31
2023-03-11T12:10:33.976Z,97707.69
2023-03-11T12:11:41.475Z,97688.22
2023-03-11T12:12:46.387Z,97697.22
2023-03-11T12:14:10.384Z,97710.16
2023-03-11T12:15:26.876Z,97695.06
2023-03-11T12:17:01.890Z,97710.03
2023-03-11T12:18:15.124Z,97692.59
2023-03-11T12:19:22.890Z,97704.66
2023-03-11T12:20:55.647Z,97695.59
2023-03-11T12:22:00.044Z,97710.34
2023-03-11T12:23:11.533Z,97711.16
2023-03-11T12:24:19.153Z,97712.72
2023-03-11T12:25:30.029Z,97702.72
2023-03-11T12:26:37.961Z,97699.41
2023-03-11T12:27:47.849Z,97704.69
2023-03-11T12:29:03.710Z,97709.41
2023-03-11T12:30:18.803Z,97707.44
2023-03-11T12:31:22.767Z,97717.81
2023-03-11T12:32:34.315Z,97728.19
2023-03-11T12:33:42.187Z,97724.91
2023-03-11T12:34:43.953Z,97725.81
2023-03-11T12:35:57.762Z,97732.50
2023-03-11T12:37:01.457Z,97739.13
2023-03-11T12:38:24.357Z,97749.59
2023-03-11T12:39:31.722Z,97741.13
2023-03-11T12:41:09.385Z,97747.13
2023-03-11T12:42:10.949Z,97742.84
2023-03-11T12:43:30.942Z,97753.34
2023-03-11T12:44:33.112Z,97758.63
2023-03-11T12:45:49.450Z,97754.00